Buenos Aires Airport


Codes: MRBA/BAI
Name: Buenos Aires Airport
City: Punta Arenas
Country: Costa Rica
Elevation: 1214 ft.

Photos at Buenos Aires Airport


   Photos courtesy of SpottingLog. You can add your own sightings and photos by signing up for a free trial today.



No photos found.

Weather at Buenos Aires Airport


Time (UTC)DescriptionTempratureWindCloud coverageVisibilityPressureHumidity
17-Jun-2024 06:00Moderate Rain23°C4 mph, NE100%10000m1014hPa98%
17-Jun-2024 09:00Light Rain23°C2 mph, NE100%10000m1013hPa96%
17-Jun-2024 12:00Overcast Clouds23°C2 mph, N100%10000m1013hPa94%
17-Jun-2024 15:00Overcast Clouds27°C2 mph, SW89%10000m1012hPa78%
17-Jun-2024 18:00Broken Clouds28°C7 mph, SW80%10000m1011hPa78%
17-Jun-2024 21:00Light Rain27°C4 mph, SW90%6678m1010hPa86%
18-Jun-2024 00:00Light Rain24°C0 mph, SW95%10000m1011hPa97%
18-Jun-2024 03:00Light Rain24°C0 mph, NE100%10000m1013hPa96%
18-Jun-2024 06:00Light Rain23°C0 mph, NE100%10000m1012hPa97%
18-Jun-2024 09:00Light Rain23°C2 mph, NE99%10000m1011hPa96%
18-Jun-2024 12:00Overcast Clouds23°C2 mph, NE99%10000m1012hPa92%
18-Jun-2024 15:00Light Rain27°C4 mph, SW99%10000m1012hPa78%
18-Jun-2024 18:00Light Rain28°C7 mph, SW100%6834m1011hPa82%
18-Jun-2024 21:00Moderate Rain25°C4 mph, SW100%4121m1009hPa95%
19-Jun-2024 00:00Moderate Rain23°C2 mph, NE100%5835m1011hPa97%
19-Jun-2024 03:00Moderate Rain23°C2 mph, NE100%10000m1013hPa96%
19-Jun-2024 06:00Light Rain22°C2 mph, NW100%10000m1012hPa96%
19-Jun-2024 09:00Light Rain22°C2 mph, NE100%10000m1011hPa95%
19-Jun-2024 12:00Overcast Clouds23°C0 mph, N100%10000m1011hPa95%
19-Jun-2024 15:00Light Rain24°C2 mph, SW100%10000m1012hPa92%
19-Jun-2024 18:00Light Rain26°C2 mph, SW100%10000m1010hPa83%
19-Jun-2024 21:00Moderate Rain24°C2 mph, SW100%4489m1009hPa97%
20-Jun-2024 00:00Light Rain23°C0 mph, SW100%10000m1010hPa98%
20-Jun-2024 03:00Light Rain23°C0 mph, SE100%9895m1011hPa99%
20-Jun-2024 06:00Light Rain22°C0 mph, NW100%10000m1011hPa99%
20-Jun-2024 09:00Moderate Rain21°C2 mph, NE100%5724m1010hPa98%
20-Jun-2024 12:00Light Rain21°C0 mph, NE100%10000m1012hPa98%
20-Jun-2024 15:00Light Rain23°C2 mph, NE100%10000m1013hPa95%
20-Jun-2024 18:00Light Rain25°C2 mph, SW100%10000m1012hPa89%
20-Jun-2024 21:00Light Rain24°C4 mph, SW100%5015m1011hPa95%
21-Jun-2024 00:00Light Rain22°C0 mph, SE100%8921m1012hPa98%
21-Jun-2024 03:00Light Rain22°C2 mph, E100%10000m1014hPa98%
21-Jun-2024 06:00Overcast Clouds22°C2 mph, E100%10000m1013hPa97%
21-Jun-2024 09:00Light Rain22°C2 mph, NE100%10000m1012hPa96%
21-Jun-2024 12:00Overcast Clouds22°C2 mph, NE100%10000m1012hPa94%
21-Jun-2024 15:00Overcast Clouds26°C2 mph, SE100%10000m1013hPa80%
21-Jun-2024 18:00Light Rain30°C4 mph, SW100%10000m1012hPa63%
21-Jun-2024 21:00Broken Clouds29°C7 mph, SW71%10000m1010hPa67%
22-Jun-2024 00:00Light Rain24°C2 mph, SW85%10000m1012hPa97%
22-Jun-2024 03:00Overcast Clouds23°C0 mph, NE98%10000m1014hPa96%